KMKE/MKE METAR and TAF weather

Enter ICAO airport designator
Station Type Date Time Source
KMKE METAR 2020/01/27 16:52 UTC NOAA

KMKE 271652Z 33005KT 10SM SCT015 OVC029 02/M03 A2998 RMK AO2 SLP159 T00171028


Station Type Date Time Source
KMKE Decoded METAR 2020/01/27 16:52 UTC NOAA

GEN MITCHELL INTERNATIONAL AIRPORT, WI, United States (KMKE) 42-57N 87-54W 206M
Jan 27, 2020 - 11:52 AM EST / 2020.01.27 1652 UTC
Wind: from the NNW (330 degrees) at 6 MPH (5 KT):0
Visibility: 10 mile(s):0
Sky conditions: overcast
Temperature: 35.1 F (1.7 C)
Dew Point: 27.0 F (-2.8 C)
Relative Humidity: 71%
Pressure (altimeter): 29.98 in. Hg (1015 hPa)
ob: KMKE 271652Z 33005KT 10SM SCT015 OVC029 02/M03 A2998 RMK AO2 SLP159 T00171028
cycle: 17

Station Type Date Time Source
KMKE TAF 2020/01/27 15:42 UTC NOAA

TAF
AMD KMKE 271439Z 2715/2818 32006KT P6SM SCT015 OVC035
TEMPO 2716/2717 BKN015
FM271700 35006KT P6SM BKN018
FM280100 00000KT P6SM OVC022
FM280900 VRB03KT P6SM OVC020

Example: see airport list